sensor_id;sensor_type;location;lat;lon;timestamp;P1;durP1;ratioP1;P2;durP2;ratioP2
68864;SDS011;55898;52.196;4.420;2022-08-01T00:00:28;1.09;;;1.06;;
68864;SDS011;55898;52.196;4.420;2022-08-01T00:02:53;1.03;;;0.99;;
68864;SDS011;55898;52.196;4.420;2022-08-01T00:05:19;1.09;;;1.06;;
68864;SDS011;55898;52.196;4.420;2022-08-01T00:07:44;1.43;;;1.41;;
68864;SDS011;55898;52.196;4.420;2022-08-01T00:10:11;1.54;;;1.52;;
68864;SDS011;55898;52.196;4.420;2022-08-01T00:12:39;1.71;;;1.71;;
68864;SDS011;55898;52.196;4.420;2022-08-01T00:15:07;2.07;;;2.07;;
68864;SDS011;55898;52.196;4.420;2022-08-01T00:17:34;33.54;;;33.48;;
68864;SDS011;55898;52.196;4.420;2022-08-01T00:20:00;43.05;;;43.04;;
68864;SDS011;55898;52.196;4.420;2022-08-01T00:22:27;20.82;;;20.82;;
68864;SDS011;55898;52.196;4.420;2022-08-01T00:24:53;4.70;;;4.70;;
68864;SDS011;55898;52.196;4.420;2022-08-01T00:27:18;2.84;;;2.84;;
68864;SDS011;55898;52.196;4.420;2022-08-01T00:29:44;1.94;;;1.94;;
68864;SDS011;55898;52.196;4.420;2022-08-01T00:32:09;1.30;;;1.30;;
68864;SDS011;55898;52.196;4.420;2022-08-01T00:34:35;1.10;;;1.10;;
68864;SDS011;55898;52.196;4.420;2022-08-01T00:37:00;1.05;;;1.05;;
68864;SDS011;55898;52.196;4.420;2022-08-01T00:39:25;0.88;;;0.88;;
68864;SDS011;55898;52.196;4.420;2022-08-01T00:41:51;0.92;;;0.92;;
68864;SDS011;55898;52.196;4.420;2022-08-01T00:44:16;0.93;;;0.93;;
68864;SDS011;55898;52.196;4.420;2022-08-01T00:46:42;1.19;;;1.19;;
68864;SDS011;55898;52.196;4.420;2022-08-01T00:49:07;1.41;;;1.41;;
68864;SDS011;55898;52.196;4.420;2022-08-01T00:51:33;1.49;;;1.49;;
68864;SDS011;55898;52.196;4.420;2022-08-01T00:53:59;1.50;;;1.50;;
68864;SDS011;55898;52.196;4.420;2022-08-01T00:56:26;1.67;;;1.67;;
68864;SDS011;55898;52.196;4.420;2022-08-01T00:58:53;1.30;;;1.30;;
68864;SDS011;55898;52.196;4.420;2022-08-01T01:01:20;1.38;;;1.38;;
68864;SDS011;55898;52.196;4.420;2022-08-01T01:03:50;1.39;;;1.39;;
68864;SDS011;55898;52.196;4.420;2022-08-01T01:06:28;1.55;;;1.55;;
68864;SDS011;55898;52.196;4.420;2022-08-01T01:14:16;1.31;;;1.31;;
68864;SDS011;55898;52.196;4.420;2022-08-01T01:17:03;1.52;;;1.52;;
68864;SDS011;55898;52.196;4.420;2022-08-01T01:19:33;1.46;;;1.46;;
68864;SDS011;55898;52.196;4.420;2022-08-01T01:22:08;1.42;;;1.42;;
68864;SDS011;55898;52.196;4.420;2022-08-01T01:24:58;1.65;;;1.65;;
68864;SDS011;55898;52.196;4.420;2022-08-01T01:30:26;1.52;;;1.52;;
68864;SDS011;55898;52.196;4.420;2022-08-01T01:32:56;1.50;;;1.50;;
68864;SDS011;55898;52.196;4.420;2022-08-01T01:35:27;1.76;;;1.76;;
68864;SDS011;55898;52.196;4.420;2022-08-01T01:38:09;1.83;;;1.83;;
68864;SDS011;55898;52.196;4.420;2022-08-01T01:40:43;1.73;;;1.73;;
68864;SDS011;55898;52.196;4.420;2022-08-01T01:43:12;1.87;;;1.87;;
68864;SDS011;55898;52.196;4.420;2022-08-01T01:45:41;1.76;;;1.76;;
68864;SDS011;55898;52.196;4.420;2022-08-01T01:48:09;1.89;;;1.89;;
68864;SDS011;55898;52.196;4.420;2022-08-01T01:50:43;1.87;;;1.87;;
68864;SDS011;55898;52.196;4.420;2022-08-01T01:53:12;2.18;;;2.18;;
68864;SDS011;55898;52.196;4.420;2022-08-01T01:55:40;1.84;;;1.84;;
68864;SDS011;55898;52.196;4.420;2022-08-01T01:58:08;1.84;;;1.84;;
68864;SDS011;55898;52.196;4.420;2022-08-01T02:00:38;1.58;;;1.58;;
68864;SDS011;55898;52.196;4.420;2022-08-01T02:03:07;1.55;;;1.55;;
68864;SDS011;55898;52.196;4.420;2022-08-01T02:05:36;1.56;;;1.56;;
68864;SDS011;55898;52.196;4.420;2022-08-01T02:08:05;1.38;;;1.38;;
68864;SDS011;55898;52.196;4.420;2022-08-01T02:10:32;1.30;;;1.30;;
68864;SDS011;55898;52.196;4.420;2022-08-01T02:13:01;1.11;;;1.11;;
68864;SDS011;55898;52.196;4.420;2022-08-01T02:15:32;1.01;;;1.01;;
68864;SDS011;55898;52.196;4.420;2022-08-01T02:18:03;1.04;;;1.04;;
68864;SDS011;55898;52.196;4.420;2022-08-01T02:20:32;1.01;;;1.01;;
68864;SDS011;55898;52.196;4.420;2022-08-01T02:23:07;0.96;;;0.96;;
68864;SDS011;55898;52.196;4.420;2022-08-01T02:28:13;1.16;;;1.16;;
68864;SDS011;55898;52.196;4.420;2022-08-01T02:30:54;1.12;;;1.12;;
68864;SDS011;55898;52.196;4.420;2022-08-01T02:33:38;1.28;;;1.28;;
68864;SDS011;55898;52.196;4.420;2022-08-01T02:36:08;1.36;;;1.36;;
68864;SDS011;55898;52.196;4.420;2022-08-01T02:38:37;1.23;;;1.23;;
68864;SDS011;55898;52.196;4.420;2022-08-01T02:41:08;1.24;;;1.24;;
68864;SDS011;55898;52.196;4.420;2022-08-01T02:43:38;1.20;;;1.20;;
68864;SDS011;55898;52.196;4.420;2022-08-01T02:46:09;1.06;;;1.06;;
68864;SDS011;55898;52.196;4.420;2022-08-01T02:48:43;1.09;;;1.09;;
68864;SDS011;55898;52.196;4.420;2022-08-01T02:51:12;1.11;;;1.11;;
68864;SDS011;55898;52.196;4.420;2022-08-01T02:53:41;1.14;;;1.14;;
68864;SDS011;55898;52.196;4.420;2022-08-01T02:56:10;1.16;;;1.16;;
68864;SDS011;55898;52.196;4.420;2022-08-01T02:58:37;1.19;;;1.19;;
68864;SDS011;55898;52.196;4.420;2022-08-01T03:01:06;1.27;;;1.27;;
68864;SDS011;55898;52.196;4.420;2022-08-01T03:03:34;1.00;;;1.00;;
68864;SDS011;55898;52.196;4.420;2022-08-01T03:06:01;1.03;;;1.03;;
68864;SDS011;55898;52.196;4.420;2022-08-01T03:08:28;1.03;;;1.03;;
68864;SDS011;55898;52.196;4.420;2022-08-01T03:10:56;0.87;;;0.87;;
68864;SDS011;55898;52.196;4.420;2022-08-01T03:13:26;0.98;;;0.98;;
68864;SDS011;55898;52.196;4.420;2022-08-01T03:15:55;0.96;;;0.96;;
68864;SDS011;55898;52.196;4.420;2022-08-01T03:18:24;1.00;;;1.00;;
68864;SDS011;55898;52.196;4.420;2022-08-01T03:20:52;0.83;;;0.83;;
68864;SDS011;55898;52.196;4.420;2022-08-01T03:23:20;0.77;;;0.77;;
68864;SDS011;55898;52.196;4.420;2022-08-01T03:25:47;0.89;;;0.89;;
68864;SDS011;55898;52.196;4.420;2022-08-01T03:28:16;0.91;;;0.91;;
68864;SDS011;55898;52.196;4.420;2022-08-01T03:30:44;0.94;;;0.94;;
68864;SDS011;55898;52.196;4.420;2022-08-01T03:33:12;0.91;;;0.91;;
68864;SDS011;55898;52.196;4.420;2022-08-01T03:35:43;1.27;;;1.27;;
68864;SDS011;55898;52.196;4.420;2022-08-01T03:38:13;1.06;;;1.06;;
68864;SDS011;55898;52.196;4.420;2022-08-01T03:40:47;1.22;;;1.22;;
68864;SDS011;55898;52.196;4.420;2022-08-01T03:43:19;1.14;;;1.14;;
68864;SDS011;55898;52.196;4.420;2022-08-01T03:45:51;1.54;;;1.54;;
68864;SDS011;55898;52.196;4.420;2022-08-01T03:48:19;1.18;;;1.18;;
68864;SDS011;55898;52.196;4.420;2022-08-01T03:50:52;1.42;;;1.42;;
68864;SDS011;55898;52.196;4.420;2022-08-01T03:53:20;1.69;;;1.69;;
68864;SDS011;55898;52.196;4.420;2022-08-01T03:55:49;1.78;;;1.78;;
68864;SDS011;55898;52.196;4.420;2022-08-01T03:58:17;1.68;;;1.68;;
68864;SDS011;55898;52.196;4.420;2022-08-01T04:00:44;1.79;;;1.79;;
68864;SDS011;55898;52.196;4.420;2022-08-01T04:03:12;2.00;;;2.00;;
68864;SDS011;55898;52.196;4.420;2022-08-01T04:05:41;1.80;;;1.80;;
68864;SDS011;55898;52.196;4.420;2022-08-01T04:08:08;1.98;;;1.98;;
68864;SDS011;55898;52.196;4.420;2022-08-01T04:10:34;1.79;;;1.79;;
68864;SDS011;55898;52.196;4.420;2022-08-01T04:13:00;1.54;;;1.54;;
68864;SDS011;55898;52.196;4.420;2022-08-01T04:15:25;1.36;;;1.36;;
68864;SDS011;55898;52.196;4.420;2022-08-01T04:17:51;1.36;;;1.36;;
68864;SDS011;55898;52.196;4.420;2022-08-01T04:20:16;1.35;;;1.35;;
68864;SDS011;55898;52.196;4.420;2022-08-01T04:22:42;1.36;;;1.36;;
68864;SDS011;55898;52.196;4.420;2022-08-01T04:25:12;1.15;;;1.15;;
68864;SDS011;55898;52.196;4.420;2022-08-01T04:27:43;1.34;;;1.34;;
68864;SDS011;55898;52.196;4.420;2022-08-01T04:30:14;1.30;;;1.30;;
68864;SDS011;55898;52.196;4.420;2022-08-01T04:32:43;1.27;;;1.27;;
68864;SDS011;55898;52.196;4.420;2022-08-01T04:35:11;1.57;;;1.57;;
68864;SDS011;55898;52.196;4.420;2022-08-01T04:37:41;1.76;;;1.76;;
68864;SDS011;55898;52.196;4.420;2022-08-01T04:40:11;1.73;;;1.73;;
68864;SDS011;55898;52.196;4.420;2022-08-01T04:42:37;1.62;;;1.62;;
68864;SDS011;55898;52.196;4.420;2022-08-01T04:45:04;1.57;;;1.57;;
68864;SDS011;55898;52.196;4.420;2022-08-01T04:47:30;1.50;;;1.50;;
68864;SDS011;55898;52.196;4.420;2022-08-01T04:49:56;1.49;;;1.49;;
68864;SDS011;55898;52.196;4.420;2022-08-01T04:52:22;1.51;;;1.51;;
68864;SDS011;55898;52.196;4.420;2022-08-01T04:54:47;1.43;;;1.43;;
68864;SDS011;55898;52.196;4.420;2022-08-01T04:57:13;1.50;;;1.50;;
68864;SDS011;55898;52.196;4.420;2022-08-01T04:59:41;1.41;;;1.41;;
68864;SDS011;55898;52.196;4.420;2022-08-01T05:02:09;1.29;;;1.29;;
68864;SDS011;55898;52.196;4.420;2022-08-01T05:04:46;1.13;;;1.13;;
68864;SDS011;55898;52.196;4.420;2022-08-01T05:07:11;1.37;;;1.37;;
68864;SDS011;55898;52.196;4.420;2022-08-01T05:09:38;1.39;;;1.39;;
68864;SDS011;55898;52.196;4.420;2022-08-01T05:12:11;1.12;;;1.12;;
68864;SDS011;55898;52.196;4.420;2022-08-01T05:14:36;1.35;;;1.35;;
68864;SDS011;55898;52.196;4.420;2022-08-01T05:17:03;1.29;;;1.29;;
68864;SDS011;55898;52.196;4.420;2022-08-01T05:19:31;1.30;;;1.30;;
68864;SDS011;55898;52.196;4.420;2022-08-01T05:22:01;1.38;;;1.38;;
68864;SDS011;55898;52.196;4.420;2022-08-01T05:24:31;1.34;;;1.34;;
68864;SDS011;55898;52.196;4.420;2022-08-01T05:26:58;1.34;;;1.34;;
68864;SDS011;55898;52.196;4.420;2022-08-01T05:29:24;1.46;;;1.46;;
68864;SDS011;55898;52.196;4.420;2022-08-01T05:31:50;1.65;;;1.65;;
68864;SDS011;55898;52.196;4.420;2022-08-01T05:34:16;1.56;;;1.56;;
68864;SDS011;55898;52.196;4.420;2022-08-01T05:36:42;1.54;;;1.54;;
68864;SDS011;55898;52.196;4.420;2022-08-01T05:39:08;1.63;;;1.63;;
68864;SDS011;55898;52.196;4.420;2022-08-01T05:41:35;1.77;;;1.77;;
68864;SDS011;55898;52.196;4.420;2022-08-01T05:44:01;1.91;;;1.91;;
68864;SDS011;55898;52.196;4.420;2022-08-01T05:46:27;1.88;;;1.88;;
68864;SDS011;55898;52.196;4.420;2022-08-01T05:48:52;2.16;;;2.16;;
68864;SDS011;55898;52.196;4.420;2022-08-01T05:51:18;2.01;;;2.01;;
68864;SDS011;55898;52.196;4.420;2022-08-01T05:53:43;2.11;;;2.11;;
68864;SDS011;55898;52.196;4.420;2022-08-01T05:56:09;2.19;;;2.19;;
68864;SDS011;55898;52.196;4.420;2022-08-01T05:58:35;2.55;;;2.55;;
68864;SDS011;55898;52.196;4.420;2022-08-01T06:01:00;2.56;;;2.56;;
68864;SDS011;55898;52.196;4.420;2022-08-01T06:03:26;2.65;;;2.65;;
68864;SDS011;55898;52.196;4.420;2022-08-01T06:05:56;2.80;;;2.80;;
68864;SDS011;55898;52.196;4.420;2022-08-01T06:08:22;2.72;;;2.72;;
68864;SDS011;55898;52.196;4.420;2022-08-01T06:10:48;2.88;;;2.88;;
68864;SDS011;55898;52.196;4.420;2022-08-01T06:13:13;3.11;;;3.11;;
68864;SDS011;55898;52.196;4.420;2022-08-01T06:15:39;3.46;;;3.46;;
68864;SDS011;55898;52.196;4.420;2022-08-01T06:18:05;4.03;;;4.03;;
68864;SDS011;55898;52.196;4.420;2022-08-01T06:20:30;4.39;;;4.39;;
68864;SDS011;55898;52.196;4.420;2022-08-01T06:22:56;4.43;;;4.43;;
68864;SDS011;55898;52.196;4.420;2022-08-01T06:25:22;4.62;;;4.62;;
68864;SDS011;55898;52.196;4.420;2022-08-01T06:27:48;4.74;;;4.74;;
68864;SDS011;55898;52.196;4.420;2022-08-01T06:30:14;4.92;;;4.92;;
68864;SDS011;55898;52.196;4.420;2022-08-01T06:32:40;4.92;;;4.92;;
68864;SDS011;55898;52.196;4.420;2022-08-01T06:35:06;4.91;;;4.91;;
68864;SDS011;55898;52.196;4.420;2022-08-01T06:37:32;4.75;;;4.75;;
68864;SDS011;55898;52.196;4.420;2022-08-01T06:40:04;5.20;;;5.20;;
68864;SDS011;55898;52.196;4.420;2022-08-01T06:42:31;4.99;;;4.99;;
68864;SDS011;55898;52.196;4.420;2022-08-01T06:45:01;4.75;;;4.75;;
68864;SDS011;55898;52.196;4.420;2022-08-01T06:47:30;5.06;;;5.06;;
68864;SDS011;55898;52.196;4.420;2022-08-01T06:49:56;4.83;;;4.83;;
68864;SDS011;55898;52.196;4.420;2022-08-01T06:52:21;4.65;;;4.65;;
68864;SDS011;55898;52.196;4.420;2022-08-01T06:54:47;3.87;;;3.87;;
68864;SDS011;55898;52.196;4.420;2022-08-01T06:57:12;3.27;;;3.27;;
68864;SDS011;55898;52.196;4.420;2022-08-01T06:59:38;3.11;;;3.11;;
68864;SDS011;55898;52.196;4.420;2022-08-01T07:02:03;2.95;;;2.95;;
68864;SDS011;55898;52.196;4.420;2022-08-01T07:04:29;2.78;;;2.78;;
68864;SDS011;55898;52.196;4.420;2022-08-01T07:06:55;2.93;;;2.93;;
68864;SDS011;55898;52.196;4.420;2022-08-01T07:09:21;2.93;;;2.89;;
68864;SDS011;55898;52.196;4.420;2022-08-01T07:11:46;3.23;;;3.08;;
68864;SDS011;55898;52.196;4.420;2022-08-01T07:14:12;3.32;;;3.16;;
68864;SDS011;55898;52.196;4.420;2022-08-01T07:16:37;3.12;;;3.02;;
68864;SDS011;55898;52.196;4.420;2022-08-01T07:19:03;2.72;;;2.69;;
68864;SDS011;55898;52.196;4.420;2022-08-01T07:21:28;2.96;;;2.96;;
68864;SDS011;55898;52.196;4.420;2022-08-01T07:23:54;2.71;;;2.71;;
68864;SDS011;55898;52.196;4.420;2022-08-01T07:26:19;2.72;;;2.72;;
68864;SDS011;55898;52.196;4.420;2022-08-01T07:28:45;2.22;;;2.22;;
68864;SDS011;55898;52.196;4.420;2022-08-01T07:31:10;2.07;;;2.07;;
68864;SDS011;55898;52.196;4.420;2022-08-01T07:33:36;1.70;;;1.70;;
68864;SDS011;55898;52.196;4.420;2022-08-01T07:36:02;1.87;;;1.82;;
68864;SDS011;55898;52.196;4.420;2022-08-01T07:38:28;1.78;;;1.66;;
68864;SDS011;55898;52.196;4.420;2022-08-01T07:40:54;1.63;;;1.61;;
68864;SDS011;55898;52.196;4.420;2022-08-01T07:43:20;1.91;;;1.81;;
68864;SDS011;55898;52.196;4.420;2022-08-01T07:45:45;1.76;;;1.64;;
68864;SDS011;55898;52.196;4.420;2022-08-01T07:48:11;1.83;;;1.69;;
68864;SDS011;55898;52.196;4.420;2022-08-01T07:50:36;1.83;;;1.69;;
68864;SDS011;55898;52.196;4.420;2022-08-01T07:53:02;1.72;;;1.60;;
68864;SDS011;55898;52.196;4.420;2022-08-01T07:55:28;1.73;;;1.61;;
68864;SDS011;55898;52.196;4.420;2022-08-01T07:57:54;1.72;;;1.56;;
68864;SDS011;55898;52.196;4.420;2022-08-01T08:00:19;1.70;;;1.56;;
68864;SDS011;55898;52.196;4.420;2022-08-01T08:02:45;1.66;;;1.52;;
68864;SDS011;55898;52.196;4.420;2022-08-01T08:05:11;1.69;;;1.53;;
68864;SDS011;55898;52.196;4.420;2022-08-01T08:07:37;1.64;;;1.46;;
68864;SDS011;55898;52.196;4.420;2022-08-01T08:10:04;1.81;;;1.59;;
68864;SDS011;55898;52.196;4.420;2022-08-01T08:12:30;1.64;;;1.47;;
68864;SDS011;55898;52.196;4.420;2022-08-01T08:14:56;1.41;;;1.28;;
68864;SDS011;55898;52.196;4.420;2022-08-01T08:17:26;1.69;;;1.51;;
68864;SDS011;55898;52.196;4.420;2022-08-01T08:19:53;1.67;;;1.48;;
68864;SDS011;55898;52.196;4.420;2022-08-01T08:22:19;1.57;;;1.41;;
68864;SDS011;55898;52.196;4.420;2022-08-01T08:24:44;1.71;;;1.51;;
68864;SDS011;55898;52.196;4.420;2022-08-01T08:27:09;2.12;;;1.78;;
68864;SDS011;55898;52.196;4.420;2022-08-01T08:29:35;2.35;;;1.97;;
68864;SDS011;55898;52.196;4.420;2022-08-01T08:32:01;2.53;;;2.13;;
68864;SDS011;55898;52.196;4.420;2022-08-01T08:34:27;2.55;;;2.18;;
68864;SDS011;55898;52.196;4.420;2022-08-01T08:36:54;2.56;;;2.18;;
68864;SDS011;55898;52.196;4.420;2022-08-01T08:39:21;3.05;;;2.57;;
68864;SDS011;55898;52.196;4.420;2022-08-01T08:41:47;3.20;;;2.69;;
68864;SDS011;55898;52.196;4.420;2022-08-01T08:44:13;3.16;;;2.60;;
68864;SDS011;55898;52.196;4.420;2022-08-01T08:46:43;3.22;;;2.65;;
68864;SDS011;55898;52.196;4.420;2022-08-01T08:49:12;3.09;;;2.52;;
68864;SDS011;55898;52.196;4.420;2022-08-01T08:51:41;3.02;;;2.47;;
68864;SDS011;55898;52.196;4.420;2022-08-01T08:54:10;2.61;;;2.17;;
68864;SDS011;55898;52.196;4.420;2022-08-01T08:56:38;2.77;;;2.33;;
68864;SDS011;55898;52.196;4.420;2022-08-01T08:59:05;2.66;;;2.28;;
68864;SDS011;55898;52.196;4.420;2022-08-01T09:01:31;2.40;;;2.08;;
68864;SDS011;55898;52.196;4.420;2022-08-01T09:03:58;2.69;;;2.29;;
68864;SDS011;55898;52.196;4.420;2022-08-01T09:06:24;2.36;;;1.98;;
68864;SDS011;55898;52.196;4.420;2022-08-01T09:08:49;2.84;;;2.36;;
68864;SDS011;55898;52.196;4.420;2022-08-01T09:11:15;2.46;;;2.04;;
68864;SDS011;55898;52.196;4.420;2022-08-01T09:13:41;2.76;;;2.32;;
68864;SDS011;55898;52.196;4.420;2022-08-01T09:16:06;2.86;;;2.44;;
68864;SDS011;55898;52.196;4.420;2022-08-01T09:18:36;2.49;;;2.13;;
68864;SDS011;55898;52.196;4.420;2022-08-01T09:21:09;2.29;;;1.99;;
68864;SDS011;55898;52.196;4.420;2022-08-01T09:23:47;2.33;;;2.00;;
68864;SDS011;55898;52.196;4.420;2022-08-01T09:26:15;2.11;;;1.83;;
68864;SDS011;55898;52.196;4.420;2022-08-01T09:28:43;2.05;;;1.82;;
68864;SDS011;55898;52.196;4.420;2022-08-01T09:31:10;2.19;;;1.92;;
68864;SDS011;55898;52.196;4.420;2022-08-01T09:33:52;1.97;;;1.75;;
68864;SDS011;55898;52.196;4.420;2022-08-01T09:36:20;2.04;;;1.79;;
68864;SDS011;55898;52.196;4.420;2022-08-01T09:38:48;2.01;;;1.77;;
68864;SDS011;55898;52.196;4.420;2022-08-01T09:41:14;2.18;;;1.89;;
68864;SDS011;55898;52.196;4.420;2022-08-01T09:43:40;2.32;;;1.98;;
68864;SDS011;55898;52.196;4.420;2022-08-01T09:46:14;2.66;;;2.22;;
68864;SDS011;55898;52.196;4.420;2022-08-01T09:51:29;2.53;;;2.11;;
68864;SDS011;55898;52.196;4.420;2022-08-01T09:53:57;2.74;;;2.29;;
68864;SDS011;55898;52.196;4.420;2022-08-01T09:56:24;2.64;;;2.15;;
68864;SDS011;55898;52.196;4.420;2022-08-01T09:58:54;2.65;;;2.12;;
68864;SDS011;55898;52.196;4.420;2022-08-01T10:01:22;2.96;;;2.37;;
68864;SDS011;55898;52.196;4.420;2022-08-01T10:04:08;2.50;;;2.01;;
68864;SDS011;55898;52.196;4.420;2022-08-01T10:06:35;2.43;;;2.01;;
68864;SDS011;55898;52.196;4.420;2022-08-01T10:09:02;2.31;;;1.94;;
68864;SDS011;55898;52.196;4.420;2022-08-01T10:11:28;2.37;;;1.97;;
68864;SDS011;55898;52.196;4.420;2022-08-01T10:13:55;2.60;;;2.16;;
68864;SDS011;55898;52.196;4.420;2022-08-01T10:16:24;2.26;;;1.88;;
68864;SDS011;55898;52.196;4.420;2022-08-01T10:18:50;2.59;;;2.12;;
68864;SDS011;55898;52.196;4.420;2022-08-01T10:21:19;2.67;;;2.18;;
68864;SDS011;55898;52.196;4.420;2022-08-01T10:23:46;2.22;;;1.85;;
68864;SDS011;55898;52.196;4.420;2022-08-01T10:26:12;2.46;;;2.07;;
68864;SDS011;55898;52.196;4.420;2022-08-01T10:28:41;2.34;;;1.97;;
68864;SDS011;55898;52.196;4.420;2022-08-01T10:31:12;2.34;;;2.02;;
68864;SDS011;55898;52.196;4.420;2022-08-01T10:33:38;1.85;;;1.61;;
68864;SDS011;55898;52.196;4.420;2022-08-01T10:36:06;1.88;;;1.68;;
68864;SDS011;55898;52.196;4.420;2022-08-01T10:38:33;2.09;;;1.83;;
68864;SDS011;55898;52.196;4.420;2022-08-01T10:41:00;2.17;;;1.91;;
68864;SDS011;55898;52.196;4.420;2022-08-01T10:43:28;2.19;;;1.91;;
68864;SDS011;55898;52.196;4.420;2022-08-01T10:45:53;2.28;;;1.97;;
68864;SDS011;55898;52.196;4.420;2022-08-01T10:48:22;2.18;;;1.88;;
68864;SDS011;55898;52.196;4.420;2022-08-01T10:51:01;2.09;;;1.78;;
68864;SDS011;55898;52.196;4.420;2022-08-01T10:53:28;2.43;;;2.11;;
68864;SDS011;55898;52.196;4.420;2022-08-01T10:58:27;2.27;;;1.98;;
68864;SDS011;55898;52.196;4.420;2022-08-01T11:03:38;1.88;;;1.70;;
68864;SDS011;55898;52.196;4.420;2022-08-01T11:06:04;1.51;;;1.34;;
68864;SDS011;55898;52.196;4.420;2022-08-01T11:08:29;1.64;;;1.44;;
68864;SDS011;55898;52.196;4.420;2022-08-01T11:11:01;1.76;;;1.51;;
68864;SDS011;55898;52.196;4.420;2022-08-01T11:16:42;2.15;;;1.82;;
68864;SDS011;55898;52.196;4.420;2022-08-01T11:19:08;2.27;;;1.91;;
68864;SDS011;55898;52.196;4.420;2022-08-01T11:27:26;2.13;;;1.77;;
68864;SDS011;55898;52.196;4.420;2022-08-01T11:32:53;1.96;;;1.67;;
68864;SDS011;55898;52.196;4.420;2022-08-01T11:35:23;2.07;;;1.78;;
68864;SDS011;55898;52.196;4.420;2022-08-01T11:37:52;2.19;;;1.86;;
68864;SDS011;55898;52.196;4.420;2022-08-01T11:40:25;2.07;;;1.74;;
68864;SDS011;55898;52.196;4.420;2022-08-01T11:45:48;1.92;;;1.64;;
68864;SDS011;55898;52.196;4.420;2022-08-01T11:48:21;1.58;;;1.38;;
68864;SDS011;55898;52.196;4.420;2022-08-01T11:50:49;1.82;;;1.60;;
68864;SDS011;55898;52.196;4.420;2022-08-01T11:53:15;1.77;;;1.55;;
68864;SDS011;55898;52.196;4.420;2022-08-01T11:55:47;1.78;;;1.58;;
68864;SDS011;55898;52.196;4.420;2022-08-01T11:58:15;1.62;;;1.45;;
68864;SDS011;55898;52.196;4.420;2022-08-01T12:00:49;1.71;;;1.55;;
68864;SDS011;55898;52.196;4.420;2022-08-01T12:03:25;1.42;;;1.30;;
68864;SDS011;55898;52.196;4.420;2022-08-01T12:05:56;1.73;;;1.53;;
68864;SDS011;55898;52.196;4.420;2022-08-01T12:08:31;1.50;;;1.30;;
68864;SDS011;55898;52.196;4.420;2022-08-01T12:11:00;1.60;;;1.40;;
68864;SDS011;55898;52.196;4.420;2022-08-01T12:13:26;1.76;;;1.50;;
68864;SDS011;55898;52.196;4.420;2022-08-01T12:15:52;1.82;;;1.52;;
68864;SDS011;55898;52.196;4.420;2022-08-01T12:18:17;1.73;;;1.45;;
68864;SDS011;55898;52.196;4.420;2022-08-01T12:20:44;1.85;;;1.57;;
68864;SDS011;55898;52.196;4.420;2022-08-01T12:23:12;1.71;;;1.47;;
68864;SDS011;55898;52.196;4.420;2022-08-01T12:25:39;1.68;;;1.43;;
68864;SDS011;55898;52.196;4.420;2022-08-01T12:28:09;1.68;;;1.44;;
68864;SDS011;55898;52.196;4.420;2022-08-01T12:30:39;1.65;;;1.42;;
68864;SDS011;55898;52.196;4.420;2022-08-01T12:33:06;1.53;;;1.32;;
68864;SDS011;55898;52.196;4.420;2022-08-01T12:35:36;1.78;;;1.55;;
68864;SDS011;55898;52.196;4.420;2022-08-01T12:38:07;1.60;;;1.38;;
68864;SDS011;55898;52.196;4.420;2022-08-01T12:40:43;1.65;;;1.38;;
68864;SDS011;55898;52.196;4.420;2022-08-01T12:43:15;1.69;;;1.43;;
68864;SDS011;55898;52.196;4.420;2022-08-01T12:45:42;1.80;;;1.53;;
68864;SDS011;55898;52.196;4.420;2022-08-01T12:48:10;1.50;;;1.28;;
68864;SDS011;55898;52.196;4.420;2022-08-01T12:50:40;1.35;;;1.17;;
68864;SDS011;55898;52.196;4.420;2022-08-01T12:53:07;1.39;;;1.24;;
68864;SDS011;55898;52.196;4.420;2022-08-01T12:55:33;1.38;;;1.24;;
68864;SDS011;55898;52.196;4.420;2022-08-01T12:58:06;1.44;;;1.28;;
68864;SDS011;55898;52.196;4.420;2022-08-01T13:00:32;1.21;;;1.08;;
68864;SDS011;55898;52.196;4.420;2022-08-01T13:03:03;1.35;;;1.22;;
68864;SDS011;55898;52.196;4.420;2022-08-01T13:08:19;1.25;;;1.12;;
68864;SDS011;55898;52.196;4.420;2022-08-01T13:10:46;1.30;;;1.16;;
68864;SDS011;55898;52.196;4.420;2022-08-01T13:13:13;1.13;;;1.01;;
68864;SDS011;55898;52.196;4.420;2022-08-01T13:15:41;1.52;;;1.36;;
68864;SDS011;55898;52.196;4.420;2022-08-01T13:18:27;1.32;;;1.19;;
68864;SDS011;55898;52.196;4.420;2022-08-01T13:23:41;1.18;;;1.09;;
68864;SDS011;55898;52.196;4.420;2022-08-01T13:29:05;1.13;;;1.03;;
68864;SDS011;55898;52.196;4.420;2022-08-01T13:31:33;1.06;;;0.97;;
68864;SDS011;55898;52.196;4.420;2022-08-01T13:33:59;1.01;;;0.92;;
68864;SDS011;55898;52.196;4.420;2022-08-01T13:36:24;0.92;;;0.84;;
68864;SDS011;55898;52.196;4.420;2022-08-01T13:38:53;0.95;;;0.87;;
68864;SDS011;55898;52.196;4.420;2022-08-01T13:41:37;0.87;;;0.81;;
68864;SDS011;55898;52.196;4.420;2022-08-01T13:44:03;0.89;;;0.83;;
68864;SDS011;55898;52.196;4.420;2022-08-01T13:46:29;0.86;;;0.82;;
68864;SDS011;55898;52.196;4.420;2022-08-01T13:48:55;0.74;;;0.72;;
68864;SDS011;55898;52.196;4.420;2022-08-01T13:51:21;0.87;;;0.87;;
68864;SDS011;55898;52.196;4.420;2022-08-01T13:53:46;0.98;;;0.94;;
68864;SDS011;55898;52.196;4.420;2022-08-01T13:56:11;0.96;;;0.93;;
68864;SDS011;55898;52.196;4.420;2022-08-01T13:58:37;0.91;;;0.87;;
68864;SDS011;55898;52.196;4.420;2022-08-01T14:01:02;0.85;;;0.80;;
68864;SDS011;55898;52.196;4.420;2022-08-01T14:03:28;0.64;;;0.62;;
68864;SDS011;55898;52.196;4.420;2022-08-01T14:05:53;0.81;;;0.77;;
68864;SDS011;55898;52.196;4.420;2022-08-01T14:08:19;0.82;;;0.80;;
68864;SDS011;55898;52.196;4.420;2022-08-01T14:10:44;0.63;;;0.63;;
68864;SDS011;55898;52.196;4.420;2022-08-01T14:13:10;0.62;;;0.62;;
68864;SDS011;55898;52.196;4.420;2022-08-01T14:15:35;0.51;;;0.51;;
68864;SDS011;55898;52.196;4.420;2022-08-01T14:18:01;0.56;;;0.56;;
68864;SDS011;55898;52.196;4.420;2022-08-01T14:20:27;0.64;;;0.64;;
68864;SDS011;55898;52.196;4.420;2022-08-01T14:22:52;0.48;;;0.48;;
68864;SDS011;55898;52.196;4.420;2022-08-01T14:25:18;0.62;;;0.62;;
68864;SDS011;55898;52.196;4.420;2022-08-01T14:27:44;0.50;;;0.50;;
68864;SDS011;55898;52.196;4.420;2022-08-01T14:30:10;0.67;;;0.67;;
68864;SDS011;55898;52.196;4.420;2022-08-01T14:32:37;0.59;;;0.59;;
68864;SDS011;55898;52.196;4.420;2022-08-01T14:35:03;0.53;;;0.53;;
68864;SDS011;55898;52.196;4.420;2022-08-01T14:37:31;0.55;;;0.55;;
68864;SDS011;55898;52.196;4.420;2022-08-01T14:39:58;0.96;;;0.96;;
68864;SDS011;55898;52.196;4.420;2022-08-01T14:42:25;0.57;;;0.57;;
68864;SDS011;55898;52.196;4.420;2022-08-01T14:44:51;0.60;;;0.60;;
68864;SDS011;55898;52.196;4.420;2022-08-01T14:47:17;0.53;;;0.53;;
68864;SDS011;55898;52.196;4.420;2022-08-01T14:49:42;0.52;;;0.52;;
68864;SDS011;55898;52.196;4.420;2022-08-01T14:52:08;0.58;;;0.58;;
68864;SDS011;55898;52.196;4.420;2022-08-01T14:54:33;0.52;;;0.52;;
68864;SDS011;55898;52.196;4.420;2022-08-01T14:56:59;0.56;;;0.56;;
68864;SDS011;55898;52.196;4.420;2022-08-01T14:59:24;0.51;;;0.51;;
68864;SDS011;55898;52.196;4.420;2022-08-01T15:01:49;0.50;;;0.50;;
68864;SDS011;55898;52.196;4.420;2022-08-01T15:04:15;0.63;;;0.63;;
68864;SDS011;55898;52.196;4.420;2022-08-01T15:06:42;0.54;;;0.54;;
68864;SDS011;55898;52.196;4.420;2022-08-01T15:09:07;0.56;;;0.56;;
68864;SDS011;55898;52.196;4.420;2022-08-01T15:11:32;0.48;;;0.48;;
68864;SDS011;55898;52.196;4.420;2022-08-01T15:13:58;0.55;;;0.55;;
68864;SDS011;55898;52.196;4.420;2022-08-01T15:16:42;0.53;;;0.53;;
68864;SDS011;55898;52.196;4.420;2022-08-01T15:19:07;0.55;;;0.55;;
68864;SDS011;55898;52.196;4.420;2022-08-01T15:21:33;0.54;;;0.54;;
68864;SDS011;55898;52.196;4.420;2022-08-01T15:23:58;0.62;;;0.62;;
68864;SDS011;55898;52.196;4.420;2022-08-01T15:26:24;0.41;;;0.41;;
68864;SDS011;55898;52.196;4.420;2022-08-01T15:28:49;0.44;;;0.44;;
68864;SDS011;55898;52.196;4.420;2022-08-01T15:31:15;0.66;;;0.66;;
68864;SDS011;55898;52.196;4.420;2022-08-01T15:33:40;0.68;;;0.68;;